TimeEST,TemperatureF,Dew PointF,Humidity,Sea Level PressureIn,VisibilityMPH,Wind Direction,Wind SpeedMPH,Gust SpeedMPH,PrecipitationIn,Events,Conditions,WindDirDegrees,DateUTC
12:15 AM,30.2,23.0,75,29.94,10.0,SE,13.8,-,N/A,,Clear,130,2013-02-08 05:15:00
12:35 AM,30.2,23.0,75,29.93,10.0,SE,12.7,-,N/A,,Clear,130,2013-02-08 05:35:00
12:55 AM,30.2,23.0,75,29.93,10.0,SE,16.1,-,N/A,,Clear,130,2013-02-08 05:55:00
1:15 AM,30.2,23.0,75,29.92,10.0,SE,15.0,-,N/A,,Clear,130,2013-02-08 06:15:00
1:55 AM,30.2,23.0,75,29.90,10.0,SE,13.8,-,N/A,,Clear,130,2013-02-08 06:55:00
2:15 AM,30.2,23.0,75,29.89,10.0,ESE,13.8,-,N/A,,Clear,120,2013-02-08 07:15:00
2:35 AM,30.2,23.0,75,29.89,10.0,SE,11.5,-,N/A,,Clear,130,2013-02-08 07:35:00
2:55 AM,30.2,24.8,80,29.88,10.0,SE,15.0,20.7,N/A,,Clear,130,2013-02-08 07:55:00
3:15 AM,30.2,24.8,80,29.86,10.0,ESE,11.5,20.7,N/A,,Clear,120,2013-02-08 08:15:00
3:35 AM,30.2,24.8,80,29.86,10.0,SE,15.0,18.4,N/A,,Partly Cloudy,130,2013-02-08 08:35:00
3:55 AM,30.2,24.8,80,29.84,10.0,SE,17.3,21.9,N/A,,Clear,130,2013-02-08 08:55:00
4:35 AM,30.2,24.8,80,29.82,10.0,SE,18.4,23.0,N/A,,Partly Cloudy,130,2013-02-08 09:35:00
4:55 AM,30.2,24.8,80,29.82,10.0,SE,16.1,23.0,N/A,,Mostly Cloudy,140,2013-02-08 09:55:00
5:15 AM,32.0,26.6,80,29.82,10.0,SE,11.5,19.6,N/A,,Overcast,130,2013-02-08 10:15:00
5:35 AM,32.0,26.6,80,29.81,10.0,SE,16.1,24.2,N/A,,Overcast,130,2013-02-08 10:35:00
6:15 AM,32.0,26.6,80,29.80,10.0,SE,16.1,21.9,N/A,,Overcast,130,2013-02-08 11:15:00
6:35 AM,33.8,28.4,81,29.79,10.0,SE,16.1,-,N/A,,Overcast,130,2013-02-08 11:35:00
7:15 AM,33.8,28.4,81,29.78,10.0,SE,15.0,20.7,N/A,,Overcast,130,2013-02-08 12:15:00
7:35 AM,33.8,28.4,81,29.78,10.0,SE,12.7,20.7,N/A,,Overcast,140,2013-02-08 12:35:00
7:55 AM,33.8,30.2,87,29.77,10.0,SE,13.8,19.6,N/A,,Overcast,140,2013-02-08 12:55:00
8:15 AM,33.8,28.4,81,29.77,10.0,SSE,11.5,18.4,N/A,,Overcast,150,2013-02-08 13:15:00
8:35 AM,33.8,30.2,87,29.77,6.0,SSE,12.7,18.4,0.01,,Overcast,150,2013-02-08 13:35:00
8:55 AM,33.8,30.2,87,29.77,5.0,SSE,10.4,-,0.02,,Overcast,150,2013-02-08 13:55:00
9:15 AM,33.8,30.2,87,29.77,9.0,SSE,11.5,16.1,N/A,,Overcast,160,2013-02-08 14:15:00
9:35 AM,33.8,30.2,87,29.76,2.5,SSE,11.5,-,0.01,,Overcast,150,2013-02-08 14:35:00
9:55 AM,33.8,30.2,87,29.76,3.0,SSE,10.4,16.1,0.01,,Overcast,160,2013-02-08 14:55:00
10:15 AM,33.8,30.2,87,29.76,1.5,SSE,11.5,16.1,0.01,,Overcast,160,2013-02-08 15:15:00
10:35 AM,33.8,30.2,87,29.76,2.0,SSE,11.5,20.7,0.01,,Overcast,160,2013-02-08 15:35:00
10:55 AM,33.8,30.2,87,29.76,3.0,South,11.5,-,0.01,,Overcast,170,2013-02-08 15:55:00
11:15 AM,33.8,30.2,87,29.75,2.5,South,10.4,-,N/A,,Overcast,170,2013-02-08 16:15:00
11:35 AM,33.8,30.2,87,29.75,3.0,South,8.1,-,0.01,,Overcast,170,2013-02-08 16:35:00
11:55 AM,33.8,30.2,87,29.75,4.0,SSW,8.1,-,0.02,,Overcast,210,2013-02-08 16:55:00
12:15 PM,33.8,30.2,87,29.75,5.0,SW,6.9,-,0.01,,Overcast,220,2013-02-08 17:15:00
12:35 PM,33.8,30.2,87,29.75,1.8,SW,8.1,-,0.03,,Overcast,230,2013-02-08 17:35:00
12:55 PM,33.8,30.2,87,29.75,3.0,West,15.0,20.7,0.05,,Overcast,260,2013-02-08 17:55:00
1:15 PM,32.0,30.2,93,29.76,7.0,WSW,18.4,25.3,0.01,,Overcast,250,2013-02-08 18:15:00
1:35 PM,32.0,28.4,87,29.77,10.0,West,17.3,24.2,0.02,,Overcast,260,2013-02-08 18:35:00
1:55 PM,30.2,26.6,86,29.78,10.0,WSW,16.1,23.0,0.03,,Overcast,250,2013-02-08 18:55:00
2:15 PM,30.2,26.6,86,29.79,10.0,West,17.3,21.9,N/A,,Overcast,280,2013-02-08 19:15:00
2:35 PM,28.4,26.6,93,29.80,5.0,West,18.4,26.5,N/A,,Overcast,260,2013-02-08 19:35:00
2:55 PM,28.4,24.8,86,29.81,3.0,West,18.4,27.6,N/A,,Overcast,270,2013-02-08 19:55:00
3:15 PM,26.6,21.2,80,29.83,6.0,West,19.6,26.5,N/A,,Overcast,270,2013-02-08 20:15:00
3:35 PM,26.6,21.2,80,29.83,6.0,WNW,13.8,24.2,N/A,,Overcast,290,2013-02-08 20:35:00
4:15 PM,24.8,19.4,80,29.86,3.0,WNW,10.4,23.0,N/A,,Overcast,290,2013-02-08 21:15:00
4:35 PM,24.8,17.6,74,29.87,3.0,WNW,16.1,23.0,N/A,,Overcast,290,2013-02-08 21:35:00
4:55 PM,23.0,17.6,80,29.88,3.0,WNW,10.4,20.7,N/A,,Overcast,290,2013-02-08 21:55:00
5:15 PM,21.2,17.6,86,29.90,2.0,WNW,11.5,20.7,N/A,,Overcast,290,2013-02-08 22:15:00
5:35 PM,21.2,15.8,80,29.91,5.0,WNW,8.1,19.6,N/A,,Overcast,300,2013-02-08 22:35:00
5:55 PM,21.2,17.6,86,29.92,4.0,WNW,10.4,20.7,N/A,,Overcast,300,2013-02-08 22:55:00
6:15 PM,21.2,15.8,80,29.94,7.0,WNW,12.7,18.4,N/A,,Overcast,300,2013-02-08 23:15:00
6:35 PM,19.4,15.8,86,29.95,10.0,WNW,13.8,19.6,N/A,,Overcast,300,2013-02-08 23:35:00
6:55 PM,19.4,15.8,86,29.97,6.0,WNW,10.4,23.0,N/A,,Overcast,300,2013-02-08 23:55:00
7:15 PM,19.4,15.8,86,29.98,6.0,WNW,8.1,18.4,N/A,,Overcast,300,2013-02-09 00:15:00
7:35 PM,19.4,15.8,86,29.99,5.0,WNW,9.2,-,N/A,,Overcast,300,2013-02-09 00:35:00
7:55 PM,19.4,15.8,86,29.99,4.0,WNW,11.5,17.3,N/A,,Overcast,290,2013-02-09 00:55:00
8:15 PM,19.4,15.8,86,30.00,3.0,NW,15.0,23.0,N/A,,Overcast,320,2013-02-09 01:15:00
8:35 PM,19.4,15.8,86,30.01,8.0,NW,11.5,17.3,N/A,,Overcast,310,2013-02-09 01:35:00
8:55 PM,19.4,15.8,86,30.02,9.0,WNW,10.4,19.6,N/A,,Overcast,300,2013-02-09 01:55:00
9:15 PM,19.4,14.0,80,30.03,5.0,NW,13.8,20.7,N/A,,Overcast,320,2013-02-09 02:15:00
9:35 PM,19.4,15.8,86,30.04,5.0,NW,9.2,20.7,N/A,,Overcast,320,2013-02-09 02:35:00
9:55 PM,19.4,15.8,86,30.05,3.0,NW,8.1,-,N/A,,Overcast,310,2013-02-09 02:55:00
10:15 PM,19.4,14.0,80,30.06,3.0,NW,12.7,16.1,N/A,,Overcast,310,2013-02-09 03:15:00
10:35 PM,19.4,14.0,80,30.07,3.0,NW,9.2,21.9,N/A,,Overcast,310,2013-02-09 03:35:00
10:55 PM,19.4,14.0,80,30.07,3.0,NW,9.2,21.9,N/A,,Overcast,310,2013-02-09 03:55:00
11:15 PM,19.4,14.0,80,30.08,5.0,NW,8.1,19.6,N/A,,Overcast,310,2013-02-09 04:15:00
11:35 PM,19.4,14.0,80,30.08,5.0,NW,12.7,19.6,N/A,,Overcast,310,2013-02-09 04:35:00
11:55 PM,19.4,14.0,80,30.09,5.0,WNW,11.5,21.9,N/A,,Overcast,300,2013-02-09 04:55:00